sensor_id;sensor_type;location;lat;lon;timestamp;pressure;altitude;pressure_sealevel;temperature;humidity
61769;BME280;47669;48.712;9.016;2024-03-07T00:00:45;97070.63;;;4.44;100.00
61769;BME280;47669;48.712;9.016;2024-03-07T00:03:11;97062.81;;;4.53;100.00
61769;BME280;47669;48.712;9.016;2024-03-07T00:05:36;97065.22;;;4.38;100.00
61769;BME280;47669;48.712;9.016;2024-03-07T00:08:02;97048.22;;;4.42;100.00
61769;BME280;47669;48.712;9.016;2024-03-07T00:10:27;97060.16;;;4.44;100.00
61769;BME280;47669;48.712;9.016;2024-03-07T00:12:53;97056.75;;;4.52;100.00
61769;BME280;47669;48.712;9.016;2024-03-07T00:15:18;97057.59;;;4.53;100.00
61769;BME280;47669;48.712;9.016;2024-03-07T00:17:43;97058.88;;;4.40;100.00
61769;BME280;47669;48.712;9.016;2024-03-07T00:20:09;97064.13;;;4.40;100.00
61769;BME280;47669;48.712;9.016;2024-03-07T00:22:39;97056.91;;;4.34;100.00
61769;BME280;47669;48.712;9.016;2024-03-07T00:25:05;97071.63;;;4.43;100.00
61769;BME280;47669;48.712;9.016;2024-03-07T00:27:31;97064.75;;;4.34;100.00
61769;BME280;47669;48.712;9.016;2024-03-07T00:29:58;97067.56;;;4.49;100.00
61769;BME280;47669;48.712;9.016;2024-03-07T00:32:23;97062.56;;;4.29;100.00
61769;BME280;47669;48.712;9.016;2024-03-07T00:34:49;97065.56;;;4.35;100.00
61769;BME280;47669;48.712;9.016;2024-03-07T00:37:18;97065.69;;;4.33;100.00
61769;BME280;47669;48.712;9.016;2024-03-07T00:39:43;97061.28;;;4.34;100.00
61769;BME280;47669;48.712;9.016;2024-03-07T00:42:09;97067.38;;;4.42;100.00
61769;BME280;47669;48.712;9.016;2024-03-07T00:44:34;97061.03;;;4.11;100.00
61769;BME280;47669;48.712;9.016;2024-03-07T00:47:00;97059.78;;;4.23;100.00
61769;BME280;47669;48.712;9.016;2024-03-07T00:49:27;97057.00;;;4.24;100.00
61769;BME280;47669;48.712;9.016;2024-03-07T00:51:53;97056.00;;;4.17;100.00
61769;BME280;47669;48.712;9.016;2024-03-07T00:54:19;97057.78;;;4.08;100.00
61769;BME280;47669;48.712;9.016;2024-03-07T00:56:44;97050.13;;;4.15;100.00
61769;BME280;47669;48.712;9.016;2024-03-07T00:59:09;97053.22;;;4.19;100.00
61769;BME280;47669;48.712;9.016;2024-03-07T01:01:35;97050.78;;;4.17;100.00
61769;BME280;47669;48.712;9.016;2024-03-07T01:04:03;97048.63;;;4.13;100.00
61769;BME280;47669;48.712;9.016;2024-03-07T01:06:28;97048.69;;;4.29;100.00
61769;BME280;47669;48.712;9.016;2024-03-07T01:08:53;97045.06;;;4.22;100.00
61769;BME280;47669;48.712;9.016;2024-03-07T01:11:19;97040.75;;;4.04;100.00
61769;BME280;47669;48.712;9.016;2024-03-07T01:13:44;97043.03;;;4.07;100.00
61769;BME280;47669;48.712;9.016;2024-03-07T01:16:09;97044.03;;;4.15;100.00
61769;BME280;47669;48.712;9.016;2024-03-07T01:18:35;97040.28;;;4.09;100.00
61769;BME280;47669;48.712;9.016;2024-03-07T01:21:04;97041.97;;;4.26;100.00
61769;BME280;47669;48.712;9.016;2024-03-07T01:23:31;97044.03;;;4.15;100.00
61769;BME280;47669;48.712;9.016;2024-03-07T01:25:58;97035.50;;;3.96;100.00
61769;BME280;47669;48.712;9.016;2024-03-07T01:28:24;97038.38;;;3.85;100.00
61769;BME280;47669;48.712;9.016;2024-03-07T01:30:50;97034.50;;;3.97;100.00
61769;BME280;47669;48.712;9.016;2024-03-07T01:33:15;97038.69;;;3.82;100.00
61769;BME280;47669;48.712;9.016;2024-03-07T01:35:41;97032.16;;;3.86;100.00
61769;BME280;47669;48.712;9.016;2024-03-07T01:38:06;97026.03;;;3.69;100.00
61769;BME280;47669;48.712;9.016;2024-03-07T01:40:33;97028.56;;;3.87;100.00
61769;BME280;47669;48.712;9.016;2024-03-07T01:43:01;97026.13;;;3.85;100.00
61769;BME280;47669;48.712;9.016;2024-03-07T01:45:26;97028.28;;;3.90;100.00
61769;BME280;47669;48.712;9.016;2024-03-07T01:47:51;97025.28;;;3.85;100.00
61769;BME280;47669;48.712;9.016;2024-03-07T01:50:17;97019.41;;;3.83;100.00
61769;BME280;47669;48.712;9.016;2024-03-07T01:52:43;97020.38;;;3.82;100.00
61769;BME280;47669;48.712;9.016;2024-03-07T01:55:10;97021.44;;;3.63;100.00
61769;BME280;47669;48.712;9.016;2024-03-07T01:57:37;97019.81;;;3.70;100.00
61769;BME280;47669;48.712;9.016;2024-03-07T02:00:03;97017.69;;;3.65;100.00
61769;BME280;47669;48.712;9.016;2024-03-07T02:02:32;97017.69;;;3.65;100.00
61769;BME280;47669;48.712;9.016;2024-03-07T02:04:58;97017.38;;;3.69;100.00
61769;BME280;47669;48.712;9.016;2024-03-07T02:07:23;97014.41;;;3.63;100.00
61769;BME280;47669;48.712;9.016;2024-03-07T02:09:48;97013.25;;;3.66;100.00
61769;BME280;47669;48.712;9.016;2024-03-07T02:12:14;97012.41;;;3.57;100.00
61769;BME280;47669;48.712;9.016;2024-03-07T02:14:39;97011.00;;;3.37;100.00
61769;BME280;47669;48.712;9.016;2024-03-07T02:17:04;97008.41;;;3.45;100.00
61769;BME280;47669;48.712;9.016;2024-03-07T02:19:30;97008.38;;;3.37;100.00
61769;BME280;47669;48.712;9.016;2024-03-07T02:21:57;97007.66;;;3.26;100.00
61769;BME280;47669;48.712;9.016;2024-03-07T02:24:22;97012.88;;;3.26;100.00
61769;BME280;47669;48.712;9.016;2024-03-07T02:26:49;97004.56;;;3.05;100.00
61769;BME280;47669;48.712;9.016;2024-03-07T02:29:14;97002.31;;;3.10;100.00
61769;BME280;47669;48.712;9.016;2024-03-07T02:31:39;97001.59;;;3.00;100.00
61769;BME280;47669;48.712;9.016;2024-03-07T02:34:07;97004.34;;;2.98;100.00
61769;BME280;47669;48.712;9.016;2024-03-07T02:36:35;96993.63;;;2.83;100.00
61769;BME280;47669;48.712;9.016;2024-03-07T02:39:00;96992.81;;;2.83;100.00
61769;BME280;47669;48.712;9.016;2024-03-07T02:41:26;96999.69;;;2.66;100.00
61769;BME280;47669;48.712;9.016;2024-03-07T02:43:51;96994.03;;;2.53;100.00
61769;BME280;47669;48.712;9.016;2024-03-07T02:46:17;96990.72;;;2.51;100.00
61769;BME280;47669;48.712;9.016;2024-03-07T02:48:42;96986.78;;;2.47;100.00
61769;BME280;47669;48.712;9.016;2024-03-07T02:51:08;96989.81;;;2.24;100.00
61769;BME280;47669;48.712;9.016;2024-03-07T02:53:33;96989.13;;;2.22;100.00
61769;BME280;47669;48.712;9.016;2024-03-07T02:55:58;96977.53;;;2.16;100.00
61769;BME280;47669;48.712;9.016;2024-03-07T02:58:24;96986.22;;;2.07;100.00
61769;BME280;47669;48.712;9.016;2024-03-07T03:00:59;96990.03;;;2.13;100.00
61769;BME280;47669;48.712;9.016;2024-03-07T03:03:28;96980.59;;;2.30;100.00
61769;BME280;47669;48.712;9.016;2024-03-07T03:05:57;96986.25;;;2.43;100.00
61769;BME280;47669;48.712;9.016;2024-03-07T03:08:22;96980.25;;;1.97;100.00
61769;BME280;47669;48.712;9.016;2024-03-07T03:10:48;96985.66;;;1.86;100.00
61769;BME280;47669;48.712;9.016;2024-03-07T03:13:16;96982.66;;;1.80;100.00
61769;BME280;47669;48.712;9.016;2024-03-07T03:15:41;96984.88;;;1.75;100.00
61769;BME280;47669;48.712;9.016;2024-03-07T03:18:07;96975.56;;;1.73;100.00
61769;BME280;47669;48.712;9.016;2024-03-07T03:20:32;96981.50;;;1.93;100.00
61769;BME280;47669;48.712;9.016;2024-03-07T03:23:04;96984.75;;;1.67;100.00
61769;BME280;47669;48.712;9.016;2024-03-07T03:25:31;96975.66;;;1.81;100.00
61769;BME280;47669;48.712;9.016;2024-03-07T03:28:00;96971.56;;;1.78;100.00
61769;BME280;47669;48.712;9.016;2024-03-07T03:30:26;96977.50;;;1.71;100.00
61769;BME280;47669;48.712;9.016;2024-03-07T03:32:51;96976.31;;;1.55;100.00
61769;BME280;47669;48.712;9.016;2024-03-07T03:35:17;96976.34;;;1.46;100.00
61769;BME280;47669;48.712;9.016;2024-03-07T03:37:43;96975.72;;;1.34;100.00
61769;BME280;47669;48.712;9.016;2024-03-07T03:40:09;96971.88;;;1.38;100.00
61769;BME280;47669;48.712;9.016;2024-03-07T03:42:38;96966.28;;;1.60;100.00
61769;BME280;47669;48.712;9.016;2024-03-07T03:45:05;96968.16;;;1.40;100.00
61769;BME280;47669;48.712;9.016;2024-03-07T03:47:35;96965.00;;;1.37;100.00
61769;BME280;47669;48.712;9.016;2024-03-07T03:50:05;96970.41;;;1.26;100.00
61769;BME280;47669;48.712;9.016;2024-03-07T03:52:31;96965.69;;;1.39;100.00
61769;BME280;47669;48.712;9.016;2024-03-07T03:54:58;96966.50;;;1.39;100.00
61769;BME280;47669;48.712;9.016;2024-03-07T03:57:25;96966.25;;;1.33;100.00
61769;BME280;47669;48.712;9.016;2024-03-07T03:59:51;96961.50;;;1.56;100.00
61769;BME280;47669;48.712;9.016;2024-03-07T04:02:16;96959.09;;;1.45;100.00
61769;BME280;47669;48.712;9.016;2024-03-07T04:04:44;96965.41;;;1.42;100.00
61769;BME280;47669;48.712;9.016;2024-03-07T04:07:13;96967.44;;;1.48;100.00
61769;BME280;47669;48.712;9.016;2024-03-07T04:09:38;96961.22;;;1.31;100.00
61769;BME280;47669;48.712;9.016;2024-03-07T04:12:04;96961.94;;;1.14;100.00
61769;BME280;47669;48.712;9.016;2024-03-07T04:14:30;96957.09;;;1.29;100.00
61769;BME280;47669;48.712;9.016;2024-03-07T04:16:58;96955.72;;;1.34;100.00
61769;BME280;47669;48.712;9.016;2024-03-07T04:19:23;96953.34;;;1.41;100.00
61769;BME280;47669;48.712;9.016;2024-03-07T04:21:48;96954.22;;;1.32;100.00
61769;BME280;47669;48.712;9.016;2024-03-07T04:24:14;96951.19;;;1.36;100.00
61769;BME280;47669;48.712;9.016;2024-03-07T04:26:39;96961.91;;;1.24;100.00
61769;BME280;47669;48.712;9.016;2024-03-07T04:29:07;96958.47;;;1.60;100.00
61769;BME280;47669;48.712;9.016;2024-03-07T04:31:33;96951.88;;;1.29;100.00
61769;BME280;47669;48.712;9.016;2024-03-07T04:33:59;96958.59;;;1.31;100.00
61769;BME280;47669;48.712;9.016;2024-03-07T04:36:24;96954.34;;;1.30;100.00
61769;BME280;47669;48.712;9.016;2024-03-07T04:38:49;96947.88;;;1.44;100.00
61769;BME280;47669;48.712;9.016;2024-03-07T04:41:16;96944.50;;;1.61;100.00
61769;BME280;47669;48.712;9.016;2024-03-07T04:43:41;96947.44;;;1.49;100.00
61769;BME280;47669;48.712;9.016;2024-03-07T04:46:07;96946.00;;;1.54;100.00
61769;BME280;47669;48.712;9.016;2024-03-07T04:48:33;96946.88;;;1.45;100.00
61769;BME280;47669;48.712;9.016;2024-03-07T04:50:58;96944.59;;;1.42;100.00
61769;BME280;47669;48.712;9.016;2024-03-07T04:53:23;96960.78;;;1.36;100.00
61769;BME280;47669;48.712;9.016;2024-03-07T04:55:48;96951.75;;;1.20;100.00
61769;BME280;47669;48.712;9.016;2024-03-07T04:58:14;96956.69;;;1.24;100.00
61769;BME280;47669;48.712;9.016;2024-03-07T05:00:39;96952.50;;;1.78;100.00
61769;BME280;47669;48.712;9.016;2024-03-07T05:03:04;96950.13;;;1.19;100.00
61769;BME280;47669;48.712;9.016;2024-03-07T05:05:30;96950.94;;;1.20;100.00
61769;BME280;47669;48.712;9.016;2024-03-07T05:07:55;96954.84;;;1.06;100.00
61769;BME280;47669;48.712;9.016;2024-03-07T05:10:23;96954.00;;;1.06;100.00
61769;BME280;47669;48.712;9.016;2024-03-07T05:12:49;96951.69;;;1.02;100.00
61769;BME280;47669;48.712;9.016;2024-03-07T05:15:14;96951.50;;;1.24;100.00
61769;BME280;47669;48.712;9.016;2024-03-07T05:17:40;96951.69;;;1.12;100.00
61769;BME280;47669;48.712;9.016;2024-03-07T05:20:08;96945.78;;;1.10;100.00
61769;BME280;47669;48.712;9.016;2024-03-07T05:22:39;96954.72;;;0.98;100.00
61769;BME280;47669;48.712;9.016;2024-03-07T05:25:15;96946.56;;;1.20;100.00
61769;BME280;47669;48.712;9.016;2024-03-07T05:27:41;96951.69;;;1.12;100.00
61769;BME280;47669;48.712;9.016;2024-03-07T05:30:07;96953.50;;;0.92;100.00
61769;BME280;47669;48.712;9.016;2024-03-07T05:32:34;96955.28;;;0.92;100.00
61769;BME280;47669;48.712;9.016;2024-03-07T05:35:00;96954.31;;;0.93;100.00
61769;BME280;47669;48.712;9.016;2024-03-07T05:37:25;96956.09;;;1.02;100.00
61769;BME280;47669;48.712;9.016;2024-03-07T05:39:51;96947.03;;;0.96;100.00
61769;BME280;47669;48.712;9.016;2024-03-07T05:42:17;96945.81;;;1.00;100.00
61769;BME280;47669;48.712;9.016;2024-03-07T05:44:42;96947.97;;;1.05;100.00
61769;BME280;47669;48.712;9.016;2024-03-07T05:47:09;96955.41;;;0.90;100.00
61769;BME280;47669;48.712;9.016;2024-03-07T05:49:35;96952.25;;;0.96;100.00
61769;BME280;47669;48.712;9.016;2024-03-07T05:52:02;96950.09;;;0.72;100.00
61769;BME280;47669;48.712;9.016;2024-03-07T05:54:27;96952.28;;;0.77;100.00
61769;BME280;47669;48.712;9.016;2024-03-07T05:56:54;96950.41;;;0.59;100.00
61769;BME280;47669;48.712;9.016;2024-03-07T05:59:20;96948.06;;;0.56;100.00
61769;BME280;47669;48.712;9.016;2024-03-07T06:01:46;96950.50;;;0.87;100.00
61769;BME280;47669;48.712;9.016;2024-03-07T06:04:12;96949.00;;;0.65;100.00
61769;BME280;47669;48.712;9.016;2024-03-07T06:06:37;96959.00;;;0.70;100.00
61769;BME280;47669;48.712;9.016;2024-03-07T06:09:08;96954.75;;;0.69;100.00
61769;BME280;47669;48.712;9.016;2024-03-07T06:11:34;96953.28;;;0.47;100.00
61769;BME280;47669;48.712;9.016;2024-03-07T06:14:00;96948.47;;;0.52;100.00
61769;BME280;47669;48.712;9.016;2024-03-07T06:16:28;96952.44;;;0.66;100.00
61769;BME280;47669;48.712;9.016;2024-03-07T06:18:53;96945.06;;;0.42;100.00
61769;BME280;47669;48.712;9.016;2024-03-07T06:21:19;96953.94;;;0.39;100.00
61769;BME280;47669;48.712;9.016;2024-03-07T06:23:45;96947.53;;;0.43;100.00
61769;BME280;47669;48.712;9.016;2024-03-07T06:26:13;96939.56;;;0.54;100.00
61769;BME280;47669;48.712;9.016;2024-03-07T06:28:41;96944.91;;;0.53;100.00
61769;BME280;47669;48.712;9.016;2024-03-07T06:31:07;96939.88;;;0.32;100.00
61769;BME280;47669;48.712;9.016;2024-03-07T06:33:35;96947.53;;;0.43;100.00
61769;BME280;47669;48.712;9.016;2024-03-07T06:36:01;96938.09;;;0.32;100.00
61769;BME280;47669;48.712;9.016;2024-03-07T06:38:26;96945.06;;;0.32;100.00
61769;BME280;47669;48.712;9.016;2024-03-07T06:40:52;96944.63;;;0.46;100.00
61769;BME280;47669;48.712;9.016;2024-03-07T06:43:18;96943.97;;;0.64;100.00
61769;BME280;47669;48.712;9.016;2024-03-07T06:45:43;96946.25;;;0.57;100.00
61769;BME280;47669;48.712;9.016;2024-03-07T06:48:11;96939.16;;;0.78;100.00
61769;BME280;47669;48.712;9.016;2024-03-07T06:50:39;96952.53;;;0.74;100.00
61769;BME280;47669;48.712;9.016;2024-03-07T06:53:05;96951.88;;;0.52;100.00
61769;BME280;47669;48.712;9.016;2024-03-07T06:55:34;96949.97;;;0.54;100.00
61769;BME280;47669;48.712;9.016;2024-03-07T06:58:00;96948.97;;;0.85;100.00
61769;BME280;47669;48.712;9.016;2024-03-07T07:00:25;96953.09;;;0.77;100.00
61769;BME280;47669;48.712;9.016;2024-03-07T07:02:51;96948.28;;;0.82;100.00
61769;BME280;47669;48.712;9.016;2024-03-07T07:05:19;96953.47;;;1.02;99.47
61769;BME280;47669;48.712;9.016;2024-03-07T07:07:45;96958.00;;;1.00;100.00
61769;BME280;47669;48.712;9.016;2024-03-07T07:10:11;96949.81;;;0.85;99.03
61769;BME280;47669;48.712;9.016;2024-03-07T07:12:49;96943.59;;;1.06;100.00
61769;BME280;47669;48.712;9.016;2024-03-07T07:15:17;96953.88;;;1.07;99.16
61769;BME280;47669;48.712;9.016;2024-03-07T07:17:44;96949.03;;;1.22;98.71
61769;BME280;47669;48.712;9.016;2024-03-07T07:20:12;96960.44;;;1.01;99.65
61769;BME280;47669;48.712;9.016;2024-03-07T07:22:40;96952.53;;;1.40;99.64
61769;BME280;47669;48.712;9.016;2024-03-07T07:25:07;96945.53;;;1.41;98.39
61769;BME280;47669;48.712;9.016;2024-03-07T07:27:48;96950.81;;;1.87;98.15
61769;BME280;47669;48.712;9.016;2024-03-07T07:30:15;96952.78;;;1.47;98.85
61769;BME280;47669;48.712;9.016;2024-03-07T07:32:42;96940.66;;;1.18;98.81
61769;BME280;47669;48.712;9.016;2024-03-07T07:35:08;96939.78;;;1.37;98.56
61769;BME280;47669;48.712;9.016;2024-03-07T07:37:44;96943.38;;;1.27;98.27
61769;BME280;47669;48.712;9.016;2024-03-07T07:40:12;96936.47;;;1.45;98.71
61769;BME280;47669;48.712;9.016;2024-03-07T07:42:44;96932.25;;;1.72;98.08
61769;BME280;47669;48.712;9.016;2024-03-07T07:45:12;96926.44;;;1.50;97.60
61769;BME280;47669;48.712;9.016;2024-03-07T07:47:43;96928.75;;;1.81;99.27
61769;BME280;47669;48.712;9.016;2024-03-07T07:50:10;96920.13;;;1.98;96.47
61769;BME280;47669;48.712;9.016;2024-03-07T07:52:46;96924.31;;;1.91;97.63
61769;BME280;47669;48.712;9.016;2024-03-07T07:55:13;96918.91;;;1.75;97.79
61769;BME280;47669;48.712;9.016;2024-03-07T07:57:43;96922.16;;;2.04;95.87
61769;BME280;47669;48.712;9.016;2024-03-07T08:00:11;96923.19;;;1.94;95.07
61769;BME280;47669;48.712;9.016;2024-03-07T08:02:37;96912.41;;;2.07;95.74
61769;BME280;47669;48.712;9.016;2024-03-07T08:05:02;96907.31;;;2.59;94.81
61769;BME280;47669;48.712;9.016;2024-03-07T08:07:30;96914.75;;;2.72;94.40
61769;BME280;47669;48.712;9.016;2024-03-07T08:09:56;96910.59;;;2.61;91.30
61769;BME280;47669;48.712;9.016;2024-03-07T08:12:21;96910.25;;;2.38;95.00
61769;BME280;47669;48.712;9.016;2024-03-07T08:14:46;96910.28;;;2.64;93.07
61769;BME280;47669;48.712;9.016;2024-03-07T08:17:12;96908.06;;;2.51;94.99
61769;BME280;47669;48.712;9.016;2024-03-07T08:19:37;96903.44;;;2.89;93.91
61769;BME280;47669;48.712;9.016;2024-03-07T08:22:02;96911.00;;;2.74;94.11
61769;BME280;47669;48.712;9.016;2024-03-07T08:24:27;96901.25;;;2.76;94.86
61769;BME280;47669;48.712;9.016;2024-03-07T08:26:53;96904.38;;;3.06;94.57
61769;BME280;47669;48.712;9.016;2024-03-07T08:29:18;96909.06;;;2.50;94.58
61769;BME280;47669;48.712;9.016;2024-03-07T08:31:44;96913.91;;;2.27;96.69
61769;BME280;47669;48.712;9.016;2024-03-07T08:34:09;96915.59;;;2.54;95.75
61769;BME280;47669;48.712;9.016;2024-03-07T08:36:34;96910.16;;;2.48;96.43
61769;BME280;47669;48.712;9.016;2024-03-07T08:39:01;96910.66;;;2.69;94.99
61769;BME280;47669;48.712;9.016;2024-03-07T08:41:28;96906.31;;;3.04;94.97
61769;BME280;47669;48.712;9.016;2024-03-07T08:43:56;96908.19;;;2.94;96.73
61769;BME280;47669;48.712;9.016;2024-03-07T08:46:21;96903.19;;;3.00;96.15
61769;BME280;47669;48.712;9.016;2024-03-07T08:48:47;96906.66;;;2.57;95.18
61769;BME280;47669;48.712;9.016;2024-03-07T08:51:13;96905.25;;;2.89;96.54
61769;BME280;47669;48.712;9.016;2024-03-07T08:53:38;96901.41;;;3.01;95.41
61769;BME280;47669;48.712;9.016;2024-03-07T08:56:04;96906.88;;;3.16;95.04
61769;BME280;47669;48.712;9.016;2024-03-07T08:58:29;96908.91;;;3.04;92.68
61769;BME280;47669;48.712;9.016;2024-03-07T09:00:54;96902.56;;;3.33;94.62
61769;BME280;47669;48.712;9.016;2024-03-07T09:03:19;96902.97;;;3.54;93.63
61769;BME280;47669;48.712;9.016;2024-03-07T09:05:46;96903.84;;;3.29;93.51
61769;BME280;47669;48.712;9.016;2024-03-07T09:08:12;96902.00;;;3.21;92.85
61769;BME280;47669;48.712;9.016;2024-03-07T09:10:37;96895.19;;;3.28;94.82
61769;BME280;47669;48.712;9.016;2024-03-07T09:13:06;96897.53;;;3.05;93.57
61769;BME280;47669;48.712;9.016;2024-03-07T09:15:31;96892.38;;;2.95;95.33
61769;BME280;47669;48.712;9.016;2024-03-07T09:17:58;96894.69;;;2.98;94.83
61769;BME280;47669;48.712;9.016;2024-03-07T09:20:24;96891.34;;;2.62;94.53
61769;BME280;47669;48.712;9.016;2024-03-07T09:22:49;96886.44;;;2.85;95.55
61769;BME280;47669;48.712;9.016;2024-03-07T09:25:16;96888.00;;;3.30;95.92
61769;BME280;47669;48.712;9.016;2024-03-07T09:27:42;96893.06;;;3.32;94.32
61769;BME280;47669;48.712;9.016;2024-03-07T09:30:08;96886.25;;;2.78;95.14
61769;BME280;47669;48.712;9.016;2024-03-07T09:32:40;96890.34;;;3.07;94.65
61769;BME280;47669;48.712;9.016;2024-03-07T09:35:07;96890.59;;;3.22;93.67
61769;BME280;47669;48.712;9.016;2024-03-07T09:37:32;96885.78;;;3.43;93.19
61769;BME280;47669;48.712;9.016;2024-03-07T09:39:58;96886.03;;;3.66;92.43
61769;BME280;47669;48.712;9.016;2024-03-07T09:42:25;96885.50;;;3.55;91.37
61769;BME280;47669;48.712;9.016;2024-03-07T09:44:51;96885.91;;;3.34;91.19
61769;BME280;47669;48.712;9.016;2024-03-07T09:47:17;96879.50;;;3.71;91.62
61769;BME280;47669;48.712;9.016;2024-03-07T09:49:44;96883.28;;;3.76;91.88
61769;BME280;47669;48.712;9.016;2024-03-07T09:52:11;96880.53;;;3.86;91.50
61769;BME280;47669;48.712;9.016;2024-03-07T09:54:39;96879.16;;;3.23;93.45
61769;BME280;47669;48.712;9.016;2024-03-07T09:57:06;96873.25;;;3.63;93.69
61769;BME280;47669;48.712;9.016;2024-03-07T09:59:34;96884.72;;;3.62;92.78
61769;BME280;47669;48.712;9.016;2024-03-07T10:33:27;96874.88;;;4.48;89.64
61769;BME280;47669;48.712;9.016;2024-03-07T10:35:53;96870.28;;;4.42;91.04
61769;BME280;47669;48.712;9.016;2024-03-07T10:38:18;96872.75;;;4.43;89.79
61769;BME280;47669;48.712;9.016;2024-03-07T10:40:47;96872.72;;;4.19;90.44
61769;BME280;47669;48.712;9.016;2024-03-07T10:43:13;96866.34;;;4.38;89.75
61769;BME280;47669;48.712;9.016;2024-03-07T10:45:47;96871.94;;;4.59;88.24
61769;BME280;47669;48.712;9.016;2024-03-07T10:48:13;96868.50;;;4.26;88.58
61769;BME280;47669;48.712;9.016;2024-03-07T10:51:08;96870.94;;;4.52;89.10
61769;BME280;47669;48.712;9.016;2024-03-07T10:56:24;96868.00;;;4.31;85.78
61769;BME280;47669;48.712;9.016;2024-03-07T10:59:03;96866.84;;;4.25;84.89
61769;BME280;47669;48.712;9.016;2024-03-07T11:01:32;96864.22;;;4.58;83.42
61769;BME280;47669;48.712;9.016;2024-03-07T11:04:00;96864.22;;;4.74;84.62
61769;BME280;47669;48.712;9.016;2024-03-07T11:06:29;96860.50;;;5.16;84.28
61769;BME280;47669;48.712;9.016;2024-03-07T11:08:55;96855.56;;;5.29;84.83
61769;BME280;47669;48.712;9.016;2024-03-07T11:11:21;96849.16;;;5.32;82.93
61769;BME280;47669;48.712;9.016;2024-03-07T11:13:48;96846.53;;;5.32;82.89
61769;BME280;47669;48.712;9.016;2024-03-07T11:16:15;96841.34;;;5.16;80.71
61769;BME280;47669;48.712;9.016;2024-03-07T11:18:41;96845.56;;;4.77;79.57
61769;BME280;47669;48.712;9.016;2024-03-07T11:21:06;96844.03;;;5.47;78.61
61769;BME280;47669;48.712;9.016;2024-03-07T11:23:33;96842.38;;;5.77;80.91
61769;BME280;47669;48.712;9.016;2024-03-07T11:26:07;96831.91;;;5.77;79.71
61769;BME280;47669;48.712;9.016;2024-03-07T11:28:42;96834.56;;;6.00;77.83
61769;BME280;47669;48.712;9.016;2024-03-07T11:31:14;96834.25;;;5.33;79.58
61769;BME280;47669;48.712;9.016;2024-03-07T11:33:41;96825.41;;;5.65;80.04
61769;BME280;47669;48.712;9.016;2024-03-07T11:36:12;96820.63;;;5.68;79.81
61769;BME280;47669;48.712;9.016;2024-03-07T11:38:44;96825.72;;;5.39;78.14
61769;BME280;47669;48.712;9.016;2024-03-07T11:41:09;96818.56;;;5.24;78.56
61769;BME280;47669;48.712;9.016;2024-03-07T11:43:38;96815.03;;;5.48;76.78
61769;BME280;47669;48.712;9.016;2024-03-07T11:46:04;96811.19;;;5.90;76.29
61769;BME280;47669;48.712;9.016;2024-03-07T11:48:38;96803.34;;;6.96;76.45
61769;BME280;47669;48.712;9.016;2024-03-07T11:51:06;96801.34;;;7.13;75.51
61769;BME280;47669;48.712;9.016;2024-03-07T11:53:33;96801.47;;;7.20;72.86
61769;BME280;47669;48.712;9.016;2024-03-07T11:56:00;96797.97;;;6.45;72.41
61769;BME280;47669;48.712;9.016;2024-03-07T11:58:37;96799.91;;;6.66;74.18
61769;BME280;47669;48.712;9.016;2024-03-07T12:01:04;96797.19;;;6.74;75.45
61769;BME280;47669;48.712;9.016;2024-03-07T12:03:31;96793.84;;;6.80;75.59
61769;BME280;47669;48.712;9.016;2024-03-07T12:05:59;96793.66;;;7.26;74.22
61769;BME280;47669;48.712;9.016;2024-03-07T12:08:24;96797.31;;;7.47;72.93
61769;BME280;47669;48.712;9.016;2024-03-07T12:10:52;96798.28;;;7.24;76.19
61769;BME280;47669;48.712;9.016;2024-03-07T12:13:21;96802.34;;;6.67;74.74
61769;BME280;47669;48.712;9.016;2024-03-07T12:15:48;96802.22;;;6.08;77.28
61769;BME280;47669;48.712;9.016;2024-03-07T12:18:17;96796.06;;;5.69;76.96
61769;BME280;47669;48.712;9.016;2024-03-07T12:20:44;96796.19;;;5.76;78.08
61769;BME280;47669;48.712;9.016;2024-03-07T12:23:15;96789.59;;;5.80;77.79
61769;BME280;47669;48.712;9.016;2024-03-07T12:25:44;96782.13;;;5.92;79.12
61769;BME280;47669;48.712;9.016;2024-03-07T12:28:12;96783.91;;;6.00;78.63
61769;BME280;47669;48.712;9.016;2024-03-07T12:30:51;96791.56;;;5.55;77.57
61769;BME280;47669;48.712;9.016;2024-03-07T12:33:18;96780.72;;;5.81;76.51
61769;BME280;47669;48.712;9.016;2024-03-07T12:35:46;96781.81;;;5.95;77.31
61769;BME280;47669;48.712;9.016;2024-03-07T12:38:13;96778.41;;;6.09;79.73
61769;BME280;47669;48.712;9.016;2024-03-07T12:40:42;96776.69;;;6.02;78.15
61769;BME280;47669;48.712;9.016;2024-03-07T12:43:17;96775.16;;;6.07;78.01
61769;BME280;47669;48.712;9.016;2024-03-07T12:45:50;96772.81;;;5.89;79.51
61769;BME280;47669;48.712;9.016;2024-03-07T12:48:17;96767.84;;;6.18;77.23
61769;BME280;47669;48.712;9.016;2024-03-07T12:50:45;96773.28;;;5.93;77.95
61769;BME280;47669;48.712;9.016;2024-03-07T12:53:11;96771.13;;;5.97;77.98
61769;BME280;47669;48.712;9.016;2024-03-07T12:55:39;96764.31;;;6.10;78.86
61769;BME280;47669;48.712;9.016;2024-03-07T12:58:10;96768.19;;;6.00;78.05
61769;BME280;47669;48.712;9.016;2024-03-07T13:00:39;96769.72;;;6.47;79.47
61769;BME280;47669;48.712;9.016;2024-03-07T13:03:09;96760.59;;;6.58;78.11
61769;BME280;47669;48.712;9.016;2024-03-07T13:05:35;96758.69;;;6.51;78.64
61769;BME280;47669;48.712;9.016;2024-03-07T13:08:02;96756.78;;;6.45;78.06
61769;BME280;47669;48.712;9.016;2024-03-07T13:10:27;96764.09;;;6.20;77.25
61769;BME280;47669;48.712;9.016;2024-03-07T13:12:53;96765.34;;;6.24;77.14
61769;BME280;47669;48.712;9.016;2024-03-07T13:15:18;96756.63;;;6.09;76.22
61769;BME280;47669;48.712;9.016;2024-03-07T13:17:46;96752.47;;;5.91;76.33
61769;BME280;47669;48.712;9.016;2024-03-07T13:20:14;96751.22;;;6.25;77.51
61769;BME280;47669;48.712;9.016;2024-03-07T13:22:41;96756.97;;;6.06;76.31
61769;BME280;47669;48.712;9.016;2024-03-07T13:25:22;96757.28;;;6.26;76.34
61769;BME280;47669;48.712;9.016;2024-03-07T13:27:56;96748.81;;;6.01;76.99
61769;BME280;47669;48.712;9.016;2024-03-07T13:30:22;96753.81;;;6.10;76.59
61769;BME280;47669;48.712;9.016;2024-03-07T13:32:53;96751.94;;;6.19;76.75
61769;BME280;47669;48.712;9.016;2024-03-07T13:35:18;96746.16;;;6.24;76.99
61769;BME280;47669;48.712;9.016;2024-03-07T13:37:46;96745.31;;;6.08;81.20